Time;durP1;ratioP1;P1;durP2;ratioP2;P2;SDS_P1;SDS_P2;PMS_P1;PMS_P2;Temp;Humidity;BMP_temperature;BMP_pressure;BME280_temperature;BME280_humidity;BME280_pressure;Samples;Min_cycle;Max_cycle;Signal;HPM_P1;HPM_P2
2024/04/14 00:00:53;;;;;;;3.10;0.53;;;;;;;;;;5411915;26;21045;-85
2024/04/14 00:03:19;;;;;;;5.57;1.50;;;;;;;;;;5417760;26;20522;-83
2024/04/14 00:05:45;;;;;;;4.10;1.40;;;;;;;;;;5417059;26;20579;-85
2024/04/14 00:08:11;;;;;;;5.83;1.70;;;;;;;;;;5419008;26;20481;-86
2024/04/14 00:10:37;;;;;;;3.50;1.30;;;;;;;;;;5416851;26;20577;-81
2024/04/14 00:13:03;;;;;;;8.03;2.17;;;;;;;;;;5418898;26;20854;-82
2024/04/14 00:15:28;;;;;;;5.03;1.87;;;;;;;;;;5418947;26;20262;-82
2024/04/14 00:17:54;;;;;;;4.17;2.07;;;;;;;;;;5418808;26;20505;-81
2024/04/14 00:20:22;;;;;;;5.60;1.67;;;;;;;;;;5418688;26;20283;-82
2024/04/14 00:22:48;;;;;;;7.03;1.53;;;;;;;;;;5418703;26;20772;-84
2024/04/14 00:25:15;;;;;;;7.20;1.70;;;;;;;;;;5418411;26;20458;-80
2024/04/14 00:27:41;;;;;;;4.00;1.33;;;;;;;;;;5418684;26;20612;-81
2024/04/14 00:30:07;;;;;;;3.87;0.83;;;;;;;;;;5418641;26;20480;-81
2024/04/14 00:32:34;;;;;;;4.67;1.40;;;;;;;;;;5418586;26;20878;-82
2024/04/14 00:34:59;;;;;;;3.83;1.60;;;;;;;;;;5418650;26;20572;-81
2024/04/14 00:37:25;;;;;;;5.30;1.70;;;;;;;;;;5416872;26;20480;-81
2024/04/14 00:39:51;;;;;;;2.47;1.30;;;;;;;;;;5418619;26;20271;-81
2024/04/14 00:42:17;;;;;;;9.27;2.00;;;;;;;;;;5418030;26;20292;-81
2024/04/14 00:44:43;;;;;;;6.67;1.80;;;;;;;;;;5418420;26;20581;-81
2024/04/14 00:47:09;;;;;;;4.20;1.43;;;;;;;;;;5418327;26;20261;-80
2024/04/14 00:49:36;;;;;;;6.33;1.97;;;;;;;;;;5418601;26;20229;-81
2024/04/14 00:52:03;;;;;;;5.40;1.20;;;;;;;;;;5418446;26;20228;-80
2024/04/14 00:54:32;;;;;;;5.93;1.30;;;;;;;;;;5418294;26;20991;-81
2024/04/14 00:56:58;;;;;;;4.87;2.00;;;;;;;;;;5417870;26;20995;-81
2024/04/14 00:59:24;;;;;;;6.80;1.70;;;;;;;;;;5418390;26;20527;-82
2024/04/14 01:01:50;;;;;;;3.83;0.93;;;;;;;;;;5413402;26;20518;-83
2024/04/14 01:04:16;;;;;;;3.20;1.63;;;;;;;;;;5409418;26;21012;-82
2024/04/14 01:06:42;;;;;;;4.93;1.57;;;;;;;;;;5418091;26;20223;-81
2024/04/14 01:09:08;;;;;;;6.17;2.20;;;;;;;;;;5418090;26;20835;-83
2024/04/14 01:11:34;;;;;;;6.47;1.80;;;;;;;;;;5417682;26;20527;-81
2024/04/14 01:14:07;;;;;;;4.90;1.33;;;;;;;;;;5417992;26;20474;-80
2024/04/14 01:16:39;;;;;;;5.63;1.97;;;;;;;;;;5414814;26;20819;-82
2024/04/14 01:19:05;;;;;;;6.70;1.80;;;;;;;;;;5417902;26;21045;-82
2024/04/14 01:21:31;;;;;;;4.80;1.50;;;;;;;;;;5415457;26;21071;-81
2024/04/14 01:23:57;;;;;;;4.87;1.40;;;;;;;;;;5417804;26;20459;-79
2024/04/14 01:26:24;;;;;;;1.90;0.93;;;;;;;;;;5417313;26;21485;-80
2024/04/14 01:28:50;;;;;;;6.97;1.40;;;;;;;;;;5417902;26;20908;-81
2024/04/14 01:31:16;;;;;;;5.23;1.40;;;;;;;;;;5417795;26;20471;-80
2024/04/14 01:33:42;;;;;;;5.17;1.70;;;;;;;;;;5417320;26;20579;-82
2024/04/14 01:36:08;;;;;;;2.50;0.67;;;;;;;;;;5417750;26;20469;-80
2024/04/14 01:38:34;;;;;;;4.50;1.50;;;;;;;;;;5417750;26;20527;-81
2024/04/14 01:41:00;;;;;;;3.47;1.03;;;;;;;;;;5417139;26;20478;-81
2024/04/14 01:43:26;;;;;;;4.67;1.33;;;;;;;;;;5417628;26;20467;-82
2024/04/14 01:45:52;;;;;;;6.63;0.97;;;;;;;;;;5417652;26;20915;-81
2024/04/14 01:48:18;;;;;;;6.40;1.47;;;;;;;;;;5417297;26;20465;-82
2024/04/14 01:50:44;;;;;;;3.50;1.10;;;;;;;;;;5412725;26;20272;-82
2024/04/14 01:53:10;;;;;;;6.03;1.33;;;;;;;;;;5417359;26;20709;-80
2024/04/14 01:55:36;;;;;;;3.77;1.13;;;;;;;;;;5417082;26;20475;-82
2024/04/14 01:58:02;;;;;;;8.27;2.03;;;;;;;;;;5417636;26;21066;-84
2024/04/14 02:00:28;;;;;;;4.13;1.10;;;;;;;;;;5417355;26;20315;-81
2024/04/14 02:02:55;;;;;;;4.90;1.63;;;;;;;;;;5416909;26;20465;-80
2024/04/14 02:05:22;;;;;;;2.43;1.30;;;;;;;;;;5417143;26;20298;-83
2024/04/14 02:07:48;;;;;;;8.63;1.53;;;;;;;;;;5417492;26;20454;-84
2024/04/14 02:10:14;;;;;;;7.50;1.13;;;;;;;;;;5416838;26;20531;-85
2024/04/14 02:12:40;;;;;;;7.53;1.57;;;;;;;;;;5416585;26;20525;-84
2024/04/14 02:15:06;;;;;;;7.67;1.97;;;;;;;;;;5417184;26;20526;-83
2024/04/14 02:17:32;;;;;;;7.53;1.00;;;;;;;;;;5417148;26;21053;-83
2024/04/14 02:19:57;;;;;;;6.20;1.73;;;;;;;;;;5417272;26;20470;-82
2024/04/14 02:22:23;;;;;;;4.77;2.00;;;;;;;;;;5416866;26;20575;-87
2024/04/14 02:24:49;;;;;;;4.10;1.77;;;;;;;;;;5418041;26;20227;-81
2024/04/14 02:27:15;;;;;;;5.87;2.30;;;;;;;;;;5412722;26;20402;-85
2024/04/14 02:29:41;;;;;;;5.80;1.63;;;;;;;;;;5417606;26;20931;-86
2024/04/14 02:32:07;;;;;;;8.17;2.00;;;;;;;;;;5417130;26;20579;-93
2024/04/14 02:34:33;;;;;;;5.60;1.90;;;;;;;;;;5418770;26;20516;-89
2024/04/14 02:36:59;;;;;;;4.30;1.73;;;;;;;;;;5418366;26;20275;-89
2024/04/14 02:39:25;;;;;;;8.30;1.93;;;;;;;;;;5416443;26;20526;-84
2024/04/14 02:41:52;;;;;;;6.67;2.27;;;;;;;;;;5417843;26;20251;-89
2024/04/14 02:44:17;;;;;;;8.67;2.53;;;;;;;;;;5418154;26;20458;-91
2024/04/14 02:46:44;;;;;;;4.67;1.60;;;;;;;;;;5418478;26;20453;-88
2024/04/14 02:49:10;;;;;;;6.27;1.80;;;;;;;;;;5415855;26;20551;-92
2024/04/14 02:51:36;;;;;;;8.00;1.70;;;;;;;;;;5408123;26;20517;-89
2024/04/14 02:54:02;;;;;;;8.47;2.30;;;;;;;;;;5418427;26;20476;-92
2024/04/14 02:56:28;;;;;;;5.93;1.50;;;;;;;;;;5418776;26;20986;-86
2024/04/14 02:58:54;;;;;;;8.07;1.13;;;;;;;;;;5418673;26;20521;-87
2024/04/14 03:01:20;;;;;;;7.27;1.37;;;;;;;;;;5418331;26;20243;-93
2024/04/14 03:03:48;;;;;;;8.53;1.43;;;;;;;;;;5416960;26;20470;-83
2024/04/14 03:06:14;;;;;;;5.07;1.13;;;;;;;;;;5416364;26;20512;-92
2024/04/14 03:08:41;;;;;;;6.03;1.17;;;;;;;;;;5416186;26;20515;-92
2024/04/14 03:11:07;;;;;;;4.33;0.90;;;;;;;;;;5415712;26;20825;-89
2024/04/14 03:13:33;;;;;;;4.73;1.03;;;;;;;;;;5418368;26;20464;-88
2024/04/14 03:16:01;;;;;;;5.40;0.80;;;;;;;;;;5417513;26;20465;-87
2024/04/14 03:18:27;;;;;;;7.93;0.97;;;;;;;;;;5418127;26;20886;-90
2024/04/14 03:21:00;;;;;;;3.23;0.60;;;;;;;;;;5418990;26;20472;-94
2024/04/14 03:23:27;;;;;;;4.50;1.00;;;;;;;;;;5419383;26;20548;-92
2024/04/14 03:25:53;;;;;;;6.33;1.33;;;;;;;;;;5420400;26;20472;-93
2024/04/14 03:28:22;;;;;;;3.00;1.23;;;;;;;;;;5420392;26;20523;-89
2024/04/14 03:30:48;;;;;;;4.63;0.80;;;;;;;;;;5422109;26;20538;-93
2024/04/14 03:33:14;;;;;;;5.50;1.37;;;;;;;;;;5423187;26;20506;-95
2024/04/14 03:35:40;;;;;;;4.30;0.93;;;;;;;;;;5421673;26;20979;-91
2024/04/14 03:38:06;;;;;;;5.20;0.70;;;;;;;;;;5421963;26;20461;-93
2024/04/14 03:40:32;;;;;;;4.00;0.60;;;;;;;;;;5421160;26;20472;-89
2024/04/14 03:42:58;;;;;;;4.13;0.30;;;;;;;;;;5422438;26;20509;-90
2024/04/14 03:45:24;;;;;;;3.80;0.30;;;;;;;;;;5422087;26;20464;-94
2024/04/14 03:47:54;;;;;;;4.90;0.60;;;;;;;;;;5420448;26;20472;-90
2024/04/14 03:50:20;;;;;;;4.63;1.30;;;;;;;;;;5421028;26;20456;-91
2024/04/14 03:52:46;;;;;;;5.10;1.03;;;;;;;;;;5420998;26;20793;-90
2024/04/14 03:55:12;;;;;;;3.53;0.63;;;;;;;;;;5421073;26;20519;-91
2024/04/14 03:57:38;;;;;;;5.73;0.90;;;;;;;;;;5421703;26;20556;-90
2024/04/14 04:00:04;;;;;;;6.10;0.70;;;;;;;;;;5422060;26;20275;-90
2024/04/14 04:02:30;;;;;;;6.47;1.40;;;;;;;;;;5421293;26;20504;-90
2024/04/14 04:04:56;;;;;;;3.70;0.80;;;;;;;;;;5416737;26;20460;-90
2024/04/14 04:07:22;;;;;;;8.60;1.07;;;;;;;;;;5419962;26;20234;-87
2024/04/14 04:09:50;;;;;;;4.17;0.83;;;;;;;;;;5421231;26;20468;-89
2024/04/14 04:12:16;;;;;;;6.87;1.70;;;;;;;;;;5392664;26;20465;-90
2024/04/14 04:14:41;;;;;;;4.00;0.97;;;;;;;;;;5421133;26;20513;-91
2024/04/14 04:17:07;;;;;;;8.23;0.80;;;;;;;;;;5421324;26;21071;-91
2024/04/14 04:19:33;;;;;;;2.20;0.50;;;;;;;;;;5420299;26;20238;-88
2024/04/14 04:21:59;;;;;;;4.03;0.47;;;;;;;;;;5422050;26;20240;-89
2024/04/14 04:24:27;;;;;;;6.73;1.17;;;;;;;;;;5422348;26;20236;-91
2024/04/14 04:26:53;;;;;;;5.27;1.10;;;;;;;;;;5421870;26;20864;-90
2024/04/14 04:29:19;;;;;;;6.57;0.83;;;;;;;;;;5421763;26;20519;-91
2024/04/14 04:31:45;;;;;;;8.53;1.27;;;;;;;;;;5420206;26;20465;-88
2024/04/14 04:34:10;;;;;;;3.93;1.87;;;;;;;;;;5418846;26;20467;-90
2024/04/14 04:36:36;;;;;;;8.48;1.00;;;;;;;;;;5408188;26;20422;-91
2024/04/14 04:39:03;;;;;;;5.97;1.13;;;;;;;;;;5419261;26;20233;-89
2024/04/14 04:41:30;;;;;;;6.45;0.65;;;;;;;;;;5417556;26;20795;-90
2024/04/14 04:43:56;;;;;;;5.10;0.40;;;;;;;;;;5420967;26;20582;-91
2024/04/14 04:46:22;;;;;;;5.10;0.50;;;;;;;;;;5420927;26;20587;-91
2024/04/14 04:48:48;;;;;;;9.43;1.00;;;;;;;;;;5420888;26;20882;-89
2024/04/14 04:51:14;;;;;;;7.50;1.23;;;;;;;;;;5418285;26;20996;-82
2024/04/14 04:53:40;;;;;;;7.23;1.37;;;;;;;;;;5416361;26;20337;-85
2024/04/14 04:56:06;;;;;;;5.63;0.47;;;;;;;;;;5417620;26;20538;-85
2024/04/14 04:58:32;;;;;;;8.57;1.20;;;;;;;;;;5418501;26;20509;-84
2024/04/14 05:00:58;;;;;;;5.60;0.80;;;;;;;;;;5420089;26;20583;-85
2024/04/14 05:03:24;;;;;;;7.07;1.27;;;;;;;;;;5418571;26;20582;-85
2024/04/14 05:05:54;;;;;;;5.17;1.37;;;;;;;;;;5418526;26;20269;-85
2024/04/14 05:08:20;;;;;;;6.57;0.93;;;;;;;;;;5414380;26;20515;-83
2024/04/14 05:10:46;;;;;;;6.80;0.63;;;;;;;;;;5417842;26;20500;-85
2024/04/14 05:13:12;;;;;;;8.13;0.93;;;;;;;;;;5416270;26;20470;-84
2024/04/14 05:15:38;;;;;;;4.23;0.53;;;;;;;;;;5418281;26;20455;-85
2024/04/14 05:18:03;;;;;;;9.03;0.80;;;;;;;;;;5418105;26;20467;-84
2024/04/14 05:20:29;;;;;;;6.00;0.60;;;;;;;;;;5417944;26;20472;-84
2024/04/14 05:22:56;;;;;;;9.03;0.90;;;;;;;;;;5418247;26;20472;-85
2024/04/14 05:25:22;;;;;;;6.23;0.97;;;;;;;;;;5417886;26;20515;-85
2024/04/14 05:27:47;;;;;;;8.03;0.40;;;;;;;;;;5418046;26;20467;-83
2024/04/14 05:30:13;;;;;;;6.00;1.87;;;;;;;;;;5418123;26;20555;-86
2024/04/14 05:32:39;;;;;;;9.90;1.07;;;;;;;;;;5416122;26;20237;-84
2024/04/14 05:35:05;;;;;;;8.27;0.90;;;;;;;;;;5416116;26;20481;-84
2024/04/14 05:37:31;;;;;;;6.20;1.03;;;;;;;;;;5417980;26;20327;-86
2024/04/14 05:39:57;;;;;;;8.17;0.87;;;;;;;;;;5417623;26;20464;-85
2024/04/14 05:42:23;;;;;;;7.60;1.10;;;;;;;;;;5417984;26;20334;-83
2024/04/14 05:44:49;;;;;;;3.43;0.83;;;;;;;;;;5418012;26;20231;-84
2024/04/14 05:47:15;;;;;;;8.70;1.07;;;;;;;;;;5416679;26;20572;-85
2024/04/14 05:49:41;;;;;;;11.03;0.70;;;;;;;;;;5415989;26;20462;-85
2024/04/14 05:52:07;;;;;;;7.47;0.50;;;;;;;;;;5417693;26;20988;-85
2024/04/14 05:54:33;;;;;;;8.77;0.63;;;;;;;;;;5417185;26;20553;-85
2024/04/14 05:56:59;;;;;;;9.13;0.70;;;;;;;;;;5415969;26;21007;-85
2024/04/14 05:59:25;;;;;;;8.00;0.50;;;;;;;;;;5417604;26;20583;-85
2024/04/14 06:01:51;;;;;;;8.00;0.97;;;;;;;;;;5417542;26;20558;-83
2024/04/14 06:04:17;;;;;;;6.57;1.37;;;;;;;;;;5412639;26;20525;-86
2024/04/14 06:06:42;;;;;;;7.10;0.70;;;;;;;;;;5417575;26;20460;-81
2024/04/14 06:09:08;;;;;;;4.10;0.50;;;;;;;;;;5417168;26;21091;-85
2024/04/14 06:11:34;;;;;;;8.43;1.27;;;;;;;;;;5417098;26;20520;-84
2024/04/14 06:14:00;;;;;;;9.10;1.10;;;;;;;;;;5417467;26;20472;-85
2024/04/14 06:16:26;;;;;;;5.47;1.40;;;;;;;;;;5417337;26;20234;-84
2024/04/14 06:18:52;;;;;;;4.17;0.50;;;;;;;;;;5417528;26;20994;-85
2024/04/14 06:21:18;;;;;;;4.30;1.23;;;;;;;;;;5417239;26;20293;-86
2024/04/14 06:23:44;;;;;;;10.63;0.80;;;;;;;;;;5417253;26;20231;-88
2024/04/14 06:26:10;;;;;;;11.23;1.30;;;;;;;;;;5416692;26;20472;-86
2024/04/14 06:28:36;;;;;;;6.83;0.80;;;;;;;;;;5410719;26;20820;-86
2024/04/14 06:31:02;;;;;;;7.87;0.63;;;;;;;;;;5415308;26;20294;-87
2024/04/14 06:33:28;;;;;;;3.03;0.77;;;;;;;;;;5416923;26;20529;-87
2024/04/14 06:35:54;;;;;;;4.00;0.63;;;;;;;;;;5415246;26;20469;-85
2024/04/14 06:38:20;;;;;;;3.40;0.50;;;;;;;;;;5417028;26;20227;-86
2024/04/14 06:40:47;;;;;;;9.17;2.30;;;;;;;;;;5414751;26;20482;-84
2024/04/14 06:43:14;;;;;;;6.27;1.20;;;;;;;;;;5416804;26;20464;-81
2024/04/14 06:45:40;;;;;;;4.80;0.73;;;;;;;;;;5414982;26;21147;-87
2024/04/14 06:48:06;;;;;;;5.57;1.40;;;;;;;;;;5416893;26;20469;-85
2024/04/14 06:50:32;;;;;;;12.13;1.30;;;;;;;;;;5416903;26;20231;-86
2024/04/14 06:52:59;;;;;;;10.10;0.93;;;;;;;;;;5417101;26;20529;-87
2024/04/14 06:55:25;;;;;;;11.30;1.10;;;;;;;;;;5414602;26;20271;-86
2024/04/14 06:57:51;;;;;;;6.17;1.10;;;;;;;;;;5414910;26;20520;-86
2024/04/14 07:00:17;;;;;;;5.97;0.87;;;;;;;;;;5413039;26;20480;-86
2024/04/14 07:02:42;;;;;;;6.27;0.83;;;;;;;;;;5417057;26;20476;-83
2024/04/14 07:05:08;;;;;;;11.13;1.40;;;;;;;;;;5416620;26;20607;-84
2024/04/14 07:07:35;;;;;;;6.47;0.53;;;;;;;;;;5416430;26;20280;-86
2024/04/14 07:10:01;;;;;;;9.17;1.77;;;;;;;;;;5416241;26;20471;-87
2024/04/14 07:12:27;;;;;;;7.27;1.10;;;;;;;;;;5416458;26;20524;-84
2024/04/14 07:14:52;;;;;;;6.33;0.70;;;;;;;;;;5431832;26;20456;-87
2024/04/14 07:17:18;;;;;;;6.17;1.23;;;;;;;;;;5437755;26;20226;-84
2024/04/14 07:19:45;;;;;;;5.33;1.23;;;;;;;;;;5416405;26;20277;-84
2024/04/14 07:22:10;;;;;;;4.20;0.90;;;;;;;;;;5416099;26;20298;-84
2024/04/14 07:24:36;;;;;;;9.13;1.17;;;;;;;;;;5410909;26;20468;-83
2024/04/14 07:27:02;;;;;;;7.77;1.37;;;;;;;;;;5416177;26;20571;-80
2024/04/14 07:29:28;;;;;;;8.87;0.93;;;;;;;;;;5414915;26;20270;-81
2024/04/14 07:31:54;;;;;;;9.37;1.37;;;;;;;;;;5414896;26;20475;-81
2024/04/14 07:34:20;;;;;;;8.30;0.67;;;;;;;;;;5415778;26;20233;-83
2024/04/14 07:36:46;;;;;;;8.17;1.33;;;;;;;;;;5415976;26;20577;-83
2024/04/14 07:39:12;;;;;;;4.83;1.20;;;;;;;;;;5415393;26;20278;-82
2024/04/14 07:41:38;;;;;;;4.80;0.90;;;;;;;;;;5414092;26;20235;-82
2024/04/14 07:44:04;;;;;;;6.33;1.07;;;;;;;;;;5415838;26;20744;-80
2024/04/14 07:46:31;;;;;;;2.93;0.77;;;;;;;;;;5404456;26;20239;-83
2024/04/14 07:48:57;;;;;;;8.07;1.10;;;;;;;;;;5415594;26;20468;-82
2024/04/14 07:51:22;;;;;;;5.67;1.13;;;;;;;;;;5415501;26;20528;-81
2024/04/14 07:53:48;;;;;;;3.83;1.13;;;;;;;;;;5415751;26;20464;-83
2024/04/14 07:56:14;;;;;;;3.87;0.50;;;;;;;;;;5415113;26;20356;-82
2024/04/14 07:58:40;;;;;;;4.67;0.77;;;;;;;;;;5415629;26;20336;-84
2024/04/14 08:01:06;;;;;;;4.67;0.80;;;;;;;;;;5415556;26;20455;-83
2024/04/14 08:03:32;;;;;;;6.77;0.70;;;;;;;;;;5413679;26;20469;-83
2024/04/14 08:05:58;;;;;;;4.70;1.00;;;;;;;;;;5415430;26;20460;-85
2024/04/14 08:08:24;;;;;;;6.10;1.20;;;;;;;;;;5415519;26;20282;-84
2024/04/14 08:10:50;;;;;;;4.87;0.60;;;;;;;;;;5414055;26;20258;-84
2024/04/14 08:13:16;;;;;;;4.63;0.90;;;;;;;;;;5418890;26;20234;-81
2024/04/14 08:15:42;;;;;;;7.50;1.07;;;;;;;;;;5418993;26;20919;-83
2024/04/14 08:18:08;;;;;;;4.73;0.50;;;;;;;;;;5408356;26;20289;-83
2024/04/14 08:20:35;;;;;;;5.17;1.00;;;;;;;;;;5394909;26;20589;-82
2024/04/14 08:23:01;;;;;;;5.50;1.13;;;;;;;;;;5384405;26;20434;-81
2024/04/14 08:25:27;;;;;;;4.77;1.00;;;;;;;;;;5381608;26;20457;-81
2024/04/14 08:27:53;;;;;;;6.27;1.20;;;;;;;;;;5384264;26;20762;-82
2024/04/14 08:30:21;;;;;;;4.10;0.60;;;;;;;;;;5381830;26;20220;-83
2024/04/14 08:32:47;;;;;;;5.13;1.40;;;;;;;;;;5383925;26;20965;-83
2024/04/14 08:35:13;;;;;;;6.80;0.90;;;;;;;;;;5383821;26;20490;-83
2024/04/14 08:37:39;;;;;;;5.93;1.20;;;;;;;;;;5383549;26;20451;-83
2024/04/14 08:40:05;;;;;;;5.00;0.70;;;;;;;;;;5411240;26;20815;-83
2024/04/14 08:42:34;;;;;;;5.17;0.73;;;;;;;;;;5418435;26;21029;-83
2024/04/14 08:45:00;;;;;;;4.77;0.60;;;;;;;;;;5418655;26;20473;-83
2024/04/14 08:47:27;;;;;;;5.43;0.97;;;;;;;;;;5418178;26;21098;-83
2024/04/14 08:49:53;;;;;;;4.27;1.10;;;;;;;;;;5415506;26;20638;-83
2024/04/14 08:52:20;;;;;;;4.00;0.90;;;;;;;;;;5414114;26;20453;-83
2024/04/14 08:54:46;;;;;;;5.33;1.13;;;;;;;;;;5413064;26;20457;-82
2024/04/14 08:57:13;;;;;;;6.60;1.40;;;;;;;;;;5418286;26;20520;-82
2024/04/14 08:59:40;;;;;;;5.40;0.80;;;;;;;;;;5407807;26;20231;-82
2024/04/14 09:02:08;;;;;;;5.73;0.90;;;;;;;;;;5416891;26;20800;-83
2024/04/14 09:04:34;;;;;;;5.50;0.80;;;;;;;;;;5417622;26;20567;-81
2024/04/14 09:07:00;;;;;;;4.07;0.70;;;;;;;;;;5418110;26;20481;-83
2024/04/14 09:09:25;;;;;;;3.57;1.00;;;;;;;;;;5417788;26;20223;-82
2024/04/14 09:11:52;;;;;;;5.27;1.57;;;;;;;;;;5417920;26;20243;-84
2024/04/14 09:14:18;;;;;;;7.53;0.93;;;;;;;;;;5391508;26;20473;-82
2024/04/14 09:16:44;;;;;;;4.30;0.80;;;;;;;;;;5381021;26;20513;-83
2024/04/14 09:19:10;;;;;;;4.63;0.73;;;;;;;;;;5382917;26;20534;-83
2024/04/14 09:21:36;;;;;;;2.97;0.70;;;;;;;;;;5381812;26;20466;-83
2024/04/14 09:24:02;;;;;;;4.40;0.77;;;;;;;;;;5395472;26;20754;-82
2024/04/14 09:26:28;;;;;;;6.70;1.70;;;;;;;;;;5418218;26;20252;-81
2024/04/14 09:29:01;;;;;;;3.87;0.90;;;;;;;;;;5397661;26;20274;-82
2024/04/14 09:31:27;;;;;;;4.47;0.63;;;;;;;;;;5416193;26;20241;-82
2024/04/14 09:33:53;;;;;;;4.30;0.90;;;;;;;;;;5417707;26;21020;-83
2024/04/14 09:36:23;;;;;;;8.43;0.97;;;;;;;;;;5416738;26;20457;-82
2024/04/14 09:38:49;;;;;;;3.00;0.80;;;;;;;;;;5416611;26;20626;-83
2024/04/14 09:41:15;;;;;;;5.43;0.60;;;;;;;;;;5417784;26;20484;-81
2024/04/14 09:43:41;;;;;;;3.20;0.70;;;;;;;;;;5394611;26;20228;-82
2024/04/14 09:46:07;;;;;;;4.13;0.77;;;;;;;;;;5381976;26;20561;-82
2024/04/14 09:48:33;;;;;;;2.90;0.60;;;;;;;;;;5380632;26;20450;-81
2024/04/14 09:51:00;;;;;;;4.40;0.73;;;;;;;;;;5380929;26;20466;-83
2024/04/14 09:53:31;;;;;;;2.23;0.77;;;;;;;;;;5381927;26;20446;-82
2024/04/14 09:55:57;;;;;;;4.47;0.70;;;;;;;;;;5380942;26;20550;-83
2024/04/14 09:58:23;;;;;;;4.93;0.43;;;;;;;;;;5382466;26;20462;-83
2024/04/14 10:00:49;;;;;;;3.43;0.53;;;;;;;;;;5382582;26;20286;-83
2024/04/14 10:03:16;;;;;;;3.70;0.50;;;;;;;;;;5382302;26;20458;-83
2024/04/14 10:05:42;;;;;;;3.93;0.30;;;;;;;;;;5382557;26;20560;-83
2024/04/14 10:08:08;;;;;;;4.30;1.00;;;;;;;;;;5380705;26;20469;-83
2024/04/14 10:10:34;;;;;;;4.50;1.67;;;;;;;;;;5381888;26;20527;-84
2024/04/14 10:13:00;;;;;;;5.40;0.83;;;;;;;;;;5382312;26;20450;-82
2024/04/14 10:15:26;;;;;;;2.97;0.57;;;;;;;;;;5382368;26;20538;-85
2024/04/14 10:18:11;;;;;;;4.07;0.90;;;;;;;;;;5382564;26;20658;-83
2024/04/14 10:20:41;;;;;;;4.63;0.70;;;;;;;;;;5382044;26;20220;-82
2024/04/14 10:23:07;;;;;;;6.10;0.73;;;;;;;;;;5382297;26;20565;-83
2024/04/14 10:25:33;;;;;;;3.23;0.67;;;;;;;;;;5381671;26;20966;-82
2024/04/14 10:27:59;;;;;;;4.00;0.30;;;;;;;;;;5380181;26;20305;-84
2024/04/14 10:30:25;;;;;;;4.13;0.77;;;;;;;;;;5380273;26;20224;-84
2024/04/14 10:33:01;;;;;;;4.20;0.47;;;;;;;;;;5381774;26;20536;-85
2024/04/14 10:35:27;;;;;;;3.57;0.40;;;;;;;;;;5382070;26;20446;-82
2024/04/14 10:37:53;;;;;;;2.80;0.43;;;;;;;;;;5381990;26;20454;-84
2024/04/14 10:40:19;;;;;;;3.93;0.60;;;;;;;;;;5381779;26;20506;-84
2024/04/14 10:42:46;;;;;;;4.07;0.80;;;;;;;;;;5381935;26;20450;-82
2024/04/14 10:45:12;;;;;;;4.33;1.57;;;;;;;;;;5381784;26;20447;-82
2024/04/14 10:47:40;;;;;;;5.80;0.80;;;;;;;;;;5381880;26;20502;-84
2024/04/14 10:50:06;;;;;;;4.73;0.77;;;;;;;;;;5381674;26;20442;-87
2024/04/14 10:52:32;;;;;;;5.17;0.67;;;;;;;;;;5382055;26;21029;-84
2024/04/14 10:54:58;;;;;;;6.40;0.70;;;;;;;;;;5381240;26;20696;-87
2024/04/14 10:57:24;;;;;;;7.20;1.40;;;;;;;;;;5381670;26;20564;-84
2024/04/14 10:59:50;;;;;;;3.40;0.63;;;;;;;;;;5381497;26;20263;-82
2024/04/14 11:02:16;;;;;;;6.50;1.07;;;;;;;;;;5381755;26;20224;-85
2024/04/14 11:04:42;;;;;;;3.23;0.40;;;;;;;;;;5381543;26;20569;-83
2024/04/14 11:07:09;;;;;;;2.50;0.30;;;;;;;;;;5381560;26;20224;-83
2024/04/14 11:09:35;;;;;;;5.20;0.83;;;;;;;;;;5381013;26;20446;-83
2024/04/14 11:12:03;;;;;;;3.17;0.80;;;;;;;;;;5381437;26;21030;-81
2024/04/14 11:14:29;;;;;;;4.70;0.80;;;;;;;;;;5381372;26;20499;-83
2024/04/14 11:16:55;;;;;;;3.40;0.40;;;;;;;;;;5381406;26;20450;-83
2024/04/14 11:19:21;;;;;;;3.37;1.07;;;;;;;;;;5379473;26;20498;-82
2024/04/14 11:21:47;;;;;;;2.50;0.40;;;;;;;;;;5381117;26;20346;-83
2024/04/14 11:24:13;;;;;;;3.53;0.70;;;;;;;;;;5380927;26;20458;-83
2024/04/14 11:26:42;;;;;;;4.73;0.30;;;;;;;;;;5381316;26;20443;-83
2024/04/14 11:29:08;;;;;;;4.23;0.40;;;;;;;;;;5381300;26;20216;-83
2024/04/14 11:31:37;;;;;;;2.77;0.50;;;;;;;;;;5379378;26;20966;-81
2024/04/14 11:34:03;;;;;;;2.17;0.30;;;;;;;;;;5379262;26;20907;-83
2024/04/14 11:36:33;;;;;;;3.57;0.50;;;;;;;;;;5380862;26;20821;-82
2024/04/14 11:38:59;;;;;;;1.97;0.30;;;;;;;;;;5380584;26;20461;-83
2024/04/14 11:41:24;;;;;;;2.73;0.77;;;;;;;;;;5381030;26;20450;-83
2024/04/14 11:43:50;;;;;;;3.57;0.40;;;;;;;;;;5380965;26;20220;-80
2024/04/14 11:46:18;;;;;;;3.97;0.53;;;;;;;;;;5382812;26;20641;-81
2024/04/14 11:48:44;;;;;;;2.30;0.20;;;;;;;;;;5384609;26;20465;-82
2024/04/14 11:51:10;;;;;;;3.93;0.60;;;;;;;;;;5384234;26;20547;-81
2024/04/14 11:53:36;;;;;;;3.53;0.40;;;;;;;;;;5383778;26;20617;-81
2024/04/14 11:56:02;;;;;;;2.23;0.40;;;;;;;;;;5384204;26;20449;-81
2024/04/14 11:58:28;;;;;;;4.83;0.40;;;;;;;;;;5384162;26;20560;-82
2024/04/14 12:00:54;;;;;;;2.30;0.30;;;;;;;;;;5384330;26;20835;-83
2024/04/14 12:03:21;;;;;;;3.03;0.80;;;;;;;;;;5384150;26;20462;-84
2024/04/14 12:05:47;;;;;;;4.27;1.47;;;;;;;;;;5405471;26;20460;-81
2024/04/14 12:08:13;;;;;;;6.40;0.80;;;;;;;;;;5419104;26;20532;-82
2024/04/14 12:10:38;;;;;;;5.73;1.13;;;;;;;;;;5419748;26;20441;-83
2024/04/14 12:13:04;;;;;;;2.80;0.73;;;;;;;;;;5419462;26;20554;-82
2024/04/14 12:15:31;;;;;;;4.07;0.60;;;;;;;;;;5419551;26;20270;-83
2024/04/14 12:17:57;;;;;;;4.37;0.53;;;;;;;;;;5419564;26;20445;-82
2024/04/14 12:20:22;;;;;;;4.03;0.77;;;;;;;;;;5417492;26;21039;-80
2024/04/14 12:22:50;;;;;;;2.70;0.50;;;;;;;;;;5417700;26;20223;-85
2024/04/14 12:25:16;;;;;;;4.00;0.43;;;;;;;;;;5419030;26;20499;-84
2024/04/14 12:27:41;;;;;;;6.10;1.10;;;;;;;;;;5419374;26;20444;-83
2024/04/14 12:30:07;;;;;;;4.97;1.00;;;;;;;;;;5419453;26;20223;-84
2024/04/14 12:32:33;;;;;;;3.83;0.43;;;;;;;;;;5419404;26;20219;-86
2024/04/14 12:34:59;;;;;;;4.17;0.70;;;;;;;;;;5419220;26;20449;-85
2024/04/14 12:37:26;;;;;;;9.40;1.47;;;;;;;;;;5419290;26;20222;-86
2024/04/14 12:39:52;;;;;;;4.53;1.00;;;;;;;;;;5418777;26;20460;-81
2024/04/14 12:42:18;;;;;;;3.37;0.50;;;;;;;;;;5418965;26;21075;-84
2024/04/14 12:44:44;;;;;;;8.30;1.17;;;;;;;;;;5417403;26;20473;-82
2024/04/14 12:47:10;;;;;;;4.73;1.00;;;;;;;;;;5418894;26;20794;-84
2024/04/14 12:49:36;;;;;;;6.57;1.27;;;;;;;;;;5418927;26;20219;-84
2024/04/14 12:52:01;;;;;;;1.90;0.67;;;;;;;;;;5419052;26;20265;-83
2024/04/14 12:54:28;;;;;;;4.30;0.60;;;;;;;;;;5418404;26;20568;-83
2024/04/14 12:56:54;;;;;;;2.50;0.73;;;;;;;;;;5418815;26;20215;-84
2024/04/14 12:59:20;;;;;;;6.20;0.70;;;;;;;;;;5417043;26;20489;-82
2024/04/14 13:01:46;;;;;;;4.30;0.50;;;;;;;;;;5417328;26;20238;-81
2024/04/14 13:04:12;;;;;;;3.00;0.87;;;;;;;;;;5416676;26;20238;-80
2024/04/14 13:06:38;;;;;;;2.83;0.47;;;;;;;;;;5418605;26;20321;-80
2024/04/14 13:09:04;;;;;;;4.57;0.43;;;;;;;;;;5418297;26;20262;-84
2024/04/14 13:11:29;;;;;;;3.63;0.70;;;;;;;;;;5418668;26;20557;-81
2024/04/14 13:13:56;;;;;;;4.90;0.87;;;;;;;;;;5418747;26;20222;-80
2024/04/14 13:16:21;;;;;;;7.97;0.97;;;;;;;;;;5418588;26;20265;-80
2024/04/14 13:18:47;;;;;;;4.60;1.13;;;;;;;;;;5418528;26;20452;-80
2024/04/14 13:21:17;;;;;;;5.13;2.10;;;;;;;;;;5418380;26;20487;-80
2024/04/14 13:23:46;;;;;;;5.97;0.80;;;;;;;;;;5417786;26;20465;-81
2024/04/14 13:26:12;;;;;;;3.57;0.67;;;;;;;;;;5418210;26;20516;-81
2024/04/14 13:28:38;;;;;;;6.90;1.40;;;;;;;;;;5418304;26;20564;-80
2024/04/14 13:31:04;;;;;;;5.50;0.83;;;;;;;;;;5418447;26;20258;-84
2024/04/14 13:33:29;;;;;;;6.23;1.57;;;;;;;;;;5418189;26;20212;-83
2024/04/14 13:35:55;;;;;;;4.10;0.73;;;;;;;;;;5418312;26;20455;-82
2024/04/14 13:38:21;;;;;;;3.20;0.80;;;;;;;;;;5418144;26;20220;-84
2024/04/14 13:40:47;;;;;;;3.07;0.50;;;;;;;;;;5418454;26;20265;-81
2024/04/14 13:43:13;;;;;;;5.00;0.93;;;;;;;;;;5417904;26;20256;-80
2024/04/14 13:45:39;;;;;;;4.80;0.60;;;;;;;;;;5418172;26;20217;-81
2024/04/14 13:48:05;;;;;;;2.10;0.40;;;;;;;;;;5417051;26;20231;-81
2024/04/14 13:50:31;;;;;;;4.83;0.40;;;;;;;;;;5418169;26;20223;-80
2024/04/14 13:52:57;;;;;;;4.90;0.80;;;;;;;;;;5417252;26;20566;-82
2024/04/14 13:55:23;;;;;;;3.63;0.53;;;;;;;;;;5417982;26;20453;-82
2024/04/14 13:57:48;;;;;;;3.43;0.40;;;;;;;;;;5417765;26;20257;-82
2024/04/14 14:00:14;;;;;;;2.37;0.40;;;;;;;;;;5418040;26;20229;-80
2024/04/14 14:02:40;;;;;;;2.53;0.60;;;;;;;;;;5416265;26;20314;-81
2024/04/14 14:05:06;;;;;;;5.00;0.70;;;;;;;;;;5418205;26;20504;-83
2024/04/14 14:07:32;;;;;;;3.43;0.60;;;;;;;;;;5418020;26;20218;-82
2024/04/14 14:09:58;;;;;;;2.50;0.47;;;;;;;;;;5415389;26;20514;-81
2024/04/14 14:12:24;;;;;;;2.67;0.53;;;;;;;;;;5417375;26;20230;-81
2024/04/14 14:14:53;;;;;;;6.30;0.57;;;;;;;;;;5417088;26;20211;-82
2024/04/14 14:17:19;;;;;;;4.53;0.50;;;;;;;;;;5417714;26;20322;-82
2024/04/14 14:19:45;;;;;;;5.40;0.80;;;;;;;;;;5414386;26;20480;-81
2024/04/14 14:22:12;;;;;;;1.93;0.23;;;;;;;;;;5417842;26;20520;-82
2024/04/14 14:24:38;;;;;;;3.83;0.50;;;;;;;;;;5417434;26;20960;-81
2024/04/14 14:27:04;;;;;;;2.33;0.30;;;;;;;;;;5417425;26;20444;-82
2024/04/14 14:29:31;;;;;;;3.40;0.53;;;;;;;;;;5417444;26;20568;-80
2024/04/14 14:31:56;;;;;;;6.00;1.23;;;;;;;;;;5417309;26;20446;-81
2024/04/14 14:37:17;;;;;;;3.83;0.60;;;;;;;;;;5414564;26;20259;-80
2024/04/14 14:39:44;;;;;;;1.97;0.40;;;;;;;;;;5417055;26;20459;-81